createdAt,value
2018-05-27T07:21:34.071Z,11.25
2018-05-27T07:22:34.036Z,11.25
2018-05-27T07:24:52.577Z,174.38
2018-05-27T07:25:52.552Z,168.75
2018-05-27T07:26:53.484Z,168.75
2018-05-27T07:27:53.410Z,168.75
2018-05-27T07:28:52.604Z,163.13
2018-05-27T07:29:52.608Z,163.13
2018-05-27T07:30:52.645Z,157.50
2018-05-27T07:31:52.618Z,157.50
2018-05-27T07:32:52.622Z,157.50
2018-05-27T07:33:52.665Z,157.50
2018-05-27T07:34:52.665Z,151.88
2018-05-27T07:35:52.710Z,151.88
2018-05-27T07:36:52.681Z,151.88
2018-05-27T07:37:52.735Z,151.88
2018-05-27T07:38:52.725Z,135.00
2018-05-27T07:39:52.729Z,129.38
2018-05-27T07:40:52.747Z,151.88
2018-05-27T07:41:52.815Z,146.25
2018-05-27T07:42:52.785Z,146.25
2018-05-27T07:43:52.787Z,146.25
2018-05-27T07:44:52.824Z,140.63
2018-05-27T07:45:52.831Z,140.63
2018-05-27T07:46:52.896Z,135.00
2018-05-27T07:47:52.892Z,135.00
2018-05-27T07:48:52.861Z,135.00
2018-05-27T07:49:52.895Z,135.00
2018-05-27T07:50:52.901Z,135.00
2018-05-27T07:51:53.008Z,135.00
2018-05-27T07:52:52.955Z,135.00
2018-05-27T07:53:52.943Z,135.00
2018-05-27T07:54:52.941Z,135.00
2018-05-27T07:55:52.991Z,135.00
2018-05-27T07:56:52.973Z,135.00
2018-05-27T07:57:53.023Z,135.00
2018-05-27T07:58:53.033Z,135.00
2018-05-27T07:59:53.069Z,140.63
2018-05-27T08:00:53.037Z,140.63
2018-05-27T08:01:53.056Z,135.00
2018-05-27T08:02:53.088Z,135.00
2018-05-27T08:03:53.110Z,135.00
2018-05-27T08:04:53.107Z,129.38
2018-05-27T08:05:53.113Z,129.38
2018-05-27T08:06:53.129Z,129.38
2018-05-27T08:07:53.153Z,129.38
2018-05-27T08:08:53.186Z,129.38
2018-05-27T08:09:53.194Z,129.38
2018-05-27T08:10:53.214Z,129.38
2018-05-27T08:11:53.211Z,129.38
2018-05-27T08:12:53.280Z,123.75
2018-05-27T08:13:53.248Z,123.75
2018-05-27T08:14:53.385Z,123.75
2018-05-27T08:15:53.252Z,123.75
2018-05-27T08:16:53.263Z,123.75
2018-05-27T08:17:53.318Z,123.75
2018-05-27T08:18:53.326Z,123.75
2018-05-27T08:19:53.347Z,123.75
2018-05-27T08:20:53.385Z,123.75
2018-05-27T08:21:54.569Z,118.13
2018-05-27T08:22:53.382Z,118.13
2018-05-27T08:23:53.368Z,118.13
2018-05-27T08:24:53.486Z,118.13
2018-05-27T08:25:53.466Z,118.13
2018-05-27T08:26:53.439Z,118.13
2018-05-27T08:27:53.437Z,118.13
2018-05-27T08:28:53.486Z,112.50
2018-05-27T08:29:53.492Z,112.50
2018-05-27T08:30:53.505Z,112.50
2018-05-27T08:31:53.554Z,112.50
2018-05-27T08:32:53.522Z,112.50
2018-05-27T08:33:53.527Z,112.50
2018-05-27T08:34:53.545Z,112.50
2018-05-27T08:35:54.286Z,112.50
2018-05-27T08:36:53.606Z,112.50
2018-05-27T08:37:53.580Z,106.88
2018-05-27T08:38:53.610Z,106.88
2018-05-27T08:39:53.618Z,106.88
2018-05-27T08:40:53.634Z,106.88
2018-05-27T08:41:53.687Z,106.88
2018-05-27T08:42:53.833Z,106.88
2018-05-27T08:43:53.729Z,106.88
2018-05-27T08:44:53.691Z,106.88
2018-05-27T08:45:53.712Z,106.88
2018-05-27T08:46:53.724Z,106.88
2018-05-27T08:47:53.771Z,78.75
2018-05-27T08:48:53.866Z,101.25
2018-05-27T08:49:53.802Z,101.25
2018-05-27T08:50:53.788Z,101.25
2018-05-27T08:51:53.793Z,101.25
2018-05-27T08:52:53.810Z,101.25
2018-05-27T08:53:53.832Z,101.25
2018-05-27T08:54:53.857Z,101.25
2018-05-27T08:55:53.873Z,101.25
2018-05-27T08:56:53.860Z,101.25
2018-05-27T08:57:53.976Z,101.25
2018-05-27T08:58:53.938Z,101.25
2018-05-27T08:59:53.911Z,101.25
2018-05-27T09:00:53.974Z,101.25
2018-05-27T09:01:54.058Z,101.25
2018-05-27T09:02:53.976Z,101.25
2018-05-27T09:03:53.963Z,101.25
2018-05-27T09:04:53.989Z,106.88
2018-05-27T09:05:54.017Z,106.88
2018-05-27T09:06:54.063Z,106.88
2018-05-27T09:07:54.028Z,106.88
2018-05-27T09:08:54.078Z,106.88
2018-05-27T09:09:54.053Z,106.88
2018-05-27T09:10:54.093Z,106.88
2018-05-27T09:11:54.127Z,106.88
2018-05-27T09:12:54.116Z,106.88
2018-05-27T09:13:54.134Z,106.88
2018-05-27T09:14:54.208Z,106.88
2018-05-27T09:15:54.172Z,106.88
2018-05-27T09:16:54.161Z,106.88
2018-05-27T09:17:54.190Z,106.88
2018-05-27T09:18:54.194Z,106.88
2018-05-27T09:19:54.274Z,106.88
2018-05-27T09:20:54.237Z,106.88
2018-05-27T09:21:54.260Z,106.88
2018-05-27T09:22:54.262Z,106.88
2018-05-27T09:23:54.316Z,106.88
2018-05-27T09:24:54.371Z,106.88
2018-05-27T09:25:54.321Z,106.88
2018-05-27T09:26:54.325Z,106.88
2018-05-27T09:27:54.442Z,106.88
2018-05-27T09:28:54.353Z,106.88
2018-05-27T09:29:54.371Z,106.88
2018-05-27T09:30:54.433Z,106.88
2018-05-27T09:31:54.404Z,106.88
2018-05-27T09:32:54.416Z,106.88
2018-05-27T09:33:54.429Z,106.88
2018-05-27T09:34:54.448Z,106.88
2018-05-27T09:35:54.518Z,106.88
2018-05-27T09:36:54.490Z,106.88
2018-05-27T09:37:54.484Z,106.88
2018-05-27T09:38:54.521Z,106.88
2018-05-27T09:39:54.528Z,106.88
2018-05-27T09:40:54.572Z,106.88
2018-05-27T09:41:54.558Z,106.88
2018-05-27T09:42:54.591Z,106.88
2018-05-27T09:43:54.637Z,106.88
2018-05-27T09:44:54.600Z,106.88
2018-05-27T09:45:54.608Z,106.88
2018-05-27T09:46:54.626Z,106.88
2018-05-27T09:47:54.636Z,106.88
2018-05-27T09:48:55.256Z,106.88
2018-05-27T09:49:54.684Z,106.88
2018-05-27T09:50:54.748Z,106.88
2018-05-27T09:51:54.821Z,106.88
2018-05-27T09:52:54.729Z,101.25
2018-05-27T09:53:54.855Z,101.25
2018-05-27T09:54:54.820Z,101.25
2018-05-27T09:55:54.873Z,101.25
2018-05-27T09:56:54.836Z,101.25
2018-05-27T09:57:54.890Z,101.25
2018-05-27T09:58:55.030Z,101.25
2018-05-27T09:59:54.916Z,101.25
2018-05-27T10:00:54.849Z,101.25
2018-05-27T10:01:54.873Z,101.25
2018-05-27T10:02:54.895Z,101.25
2018-05-27T10:03:54.889Z,101.25
2018-05-27T10:04:54.949Z,101.25
2018-05-27T10:05:55.048Z,101.25
2018-05-27T10:06:54.943Z,101.25
2018-05-27T10:07:54.946Z,101.25
2018-05-27T10:08:55.012Z,101.25
2018-05-27T10:09:54.992Z,101.25
2018-05-27T10:10:55.037Z,101.25
2018-05-27T10:11:55.009Z,101.25
2018-05-27T10:12:55.071Z,101.25
2018-05-27T10:13:55.044Z,101.25
2018-05-27T10:14:55.111Z,101.25
2018-05-27T10:15:55.090Z,101.25
2018-05-27T10:16:55.102Z,101.25
2018-05-27T10:17:55.107Z,101.25
2018-05-27T10:18:55.214Z,101.25
2018-05-27T10:19:55.669Z,101.25
2018-05-27T10:20:55.199Z,101.25
2018-05-27T10:21:55.170Z,101.25
2018-05-27T10:22:55.187Z,101.25
2018-05-27T10:23:55.250Z,101.25
2018-05-27T10:24:55.233Z,101.25
2018-05-27T10:25:55.329Z,101.25
2018-05-27T10:26:55.296Z,101.25
2018-05-27T10:27:55.307Z,101.25
2018-05-27T10:28:55.287Z,101.25
2018-05-27T10:29:55.601Z,101.25
2018-05-27T10:30:55.330Z,101.25
2018-05-27T10:31:55.351Z,101.25
2018-05-27T10:32:55.462Z,101.25
2018-05-27T10:33:55.366Z,101.25
2018-05-27T10:34:55.379Z,101.25
2018-05-27T10:35:55.456Z,101.25
2018-05-27T10:36:55.428Z,101.25
2018-05-27T10:37:55.442Z,101.25
2018-05-27T10:38:55.508Z,101.25
2018-05-27T10:39:55.457Z,101.25
2018-05-27T10:40:55.624Z,101.25
2018-05-27T10:41:55.475Z,101.25
2018-05-27T10:42:55.584Z,101.25
2018-05-27T10:43:55.631Z,101.25
2018-05-27T10:44:55.603Z,101.25
2018-05-27T10:45:55.565Z,101.25
2018-05-27T10:46:55.568Z,101.25
2018-05-27T10:47:55.573Z,101.25
2018-05-27T10:48:55.606Z,95.63
2018-05-27T10:49:55.670Z,95.63
2018-05-27T10:50:55.684Z,95.63
2018-05-27T10:51:55.643Z,101.25
2018-05-27T10:52:55.665Z,101.25
2018-05-27T10:53:55.706Z,101.25
2018-05-27T10:54:55.691Z,101.25
2018-05-27T10:55:55.724Z,101.25
2018-05-27T10:56:55.766Z,101.25
2018-05-27T10:57:55.769Z,101.25
2018-05-27T10:58:55.748Z,101.25
2018-05-27T10:59:55.805Z,101.25
2018-05-27T11:00:55.795Z,101.25
2018-05-27T11:01:55.851Z,101.25
2018-05-27T11:02:55.837Z,101.25
2018-05-27T11:03:55.824Z,101.25
2018-05-27T11:04:55.846Z,101.25
2018-05-27T11:05:55.925Z,101.25
2018-05-27T11:06:55.939Z,101.25
2018-05-27T11:07:55.908Z,101.25
2018-05-27T11:08:55.962Z,101.25
2018-05-27T11:09:55.935Z,101.25
2018-05-27T11:10:55.954Z,101.25
2018-05-27T11:11:56.023Z,101.25
2018-05-27T11:12:56.059Z,101.25
2018-05-27T11:13:56.001Z,101.25
2018-05-27T11:14:56.024Z,101.25
2018-05-27T11:15:56.025Z,101.25
2018-05-27T11:16:56.059Z,101.25
2018-05-27T11:17:56.114Z,101.25
2018-05-27T11:18:56.081Z,101.25
2018-05-27T11:19:56.094Z,101.25
2018-05-27T11:20:56.100Z,101.25
2018-05-27T11:21:56.121Z,101.25
2018-05-27T11:22:56.162Z,101.25
2018-05-27T11:23:56.168Z,101.25
2018-05-27T11:24:56.210Z,101.25
2018-05-27T11:25:56.206Z,95.63
2018-05-27T11:26:56.195Z,95.63
2018-05-27T11:27:56.258Z,95.63
2018-05-27T11:28:56.255Z,106.88
2018-05-27T11:29:56.370Z,106.88
2018-05-27T11:30:56.274Z,106.88
2018-05-27T11:31:56.288Z,106.88
2018-05-27T11:32:56.340Z,106.88
2018-05-27T11:33:56.330Z,101.25
2018-05-27T11:34:56.359Z,106.88
2018-05-27T11:35:56.359Z,118.13
2018-05-27T11:36:56.472Z,118.13
2018-05-27T11:37:56.390Z,118.13
2018-05-27T11:38:56.418Z,112.50
2018-05-27T11:39:56.435Z,106.88
2018-05-27T11:40:56.431Z,106.88
2018-05-27T11:41:56.523Z,95.63
2018-05-27T11:42:56.483Z,90.00
2018-05-27T11:43:56.495Z,90.00
2018-05-27T11:44:56.508Z,90.00
2018-05-27T11:45:56.517Z,90.00
2018-05-27T11:46:56.592Z,90.00
2018-05-27T11:47:56.592Z,90.00
2018-05-27T11:48:56.570Z,95.63
2018-05-27T11:49:56.611Z,95.63
2018-05-27T11:50:56.607Z,106.88
2018-05-27T11:51:56.607Z,112.50
2018-05-27T11:52:56.669Z,123.75
2018-05-27T11:53:56.674Z,129.38
2018-05-27T11:54:56.653Z,140.63
2018-05-27T11:55:56.689Z,151.88
2018-05-27T11:56:56.709Z,157.50
2018-05-27T11:57:56.763Z,163.13
2018-05-27T11:58:56.756Z,174.38
2018-05-27T11:59:56.735Z,168.75
2018-05-27T12:00:56.772Z,168.75
2018-05-27T12:01:56.837Z,168.75
2018-05-27T12:02:56.809Z,168.75
2018-05-27T12:03:56.845Z,163.13
2018-05-27T12:04:56.833Z,140.63
2018-05-27T12:05:56.839Z,146.25
2018-05-27T12:06:56.858Z,163.13
2018-05-27T12:07:56.885Z,163.13
2018-05-27T12:08:56.908Z,168.75
2018-05-27T12:09:56.914Z,168.75
2018-05-27T12:10:56.917Z,163.13
2018-05-27T12:11:56.983Z,168.75
2018-05-27T12:12:56.969Z,163.13
2018-05-27T12:13:56.982Z,151.88
2018-05-27T12:14:56.994Z,146.25
2018-05-27T12:15:57.074Z,135.00
2018-05-27T12:16:57.078Z,129.38
2018-05-27T12:17:57.097Z,123.75
2018-05-27T12:18:57.067Z,123.75
2018-05-27T12:19:57.073Z,123.75
2018-05-27T12:20:57.078Z,129.38
2018-05-27T12:21:57.099Z,123.75
2018-05-27T12:22:57.187Z,123.75
2018-05-27T12:23:57.157Z,118.13
2018-05-27T12:24:57.148Z,118.13
2018-05-27T12:25:57.177Z,123.75
2018-05-27T12:26:57.198Z,129.38
2018-05-27T12:27:57.253Z,135.00
2018-05-27T12:28:57.280Z,129.38
2018-05-27T12:29:57.272Z,135.00
2018-05-27T12:30:57.280Z,135.00
2018-05-27T12:31:57.313Z,129.38
2018-05-27T12:32:57.288Z,123.75
2018-05-27T12:33:57.317Z,118.13
2018-05-27T12:34:57.337Z,112.50
2018-05-27T12:35:57.430Z,101.25
2018-05-27T12:36:57.378Z,95.63
2018-05-27T12:37:57.380Z,78.75
2018-05-27T12:38:57.407Z,61.88
2018-05-27T12:39:57.520Z,50.63
2018-05-27T12:40:57.468Z,45.00
2018-05-27T12:41:57.505Z,39.38
2018-05-27T12:42:57.481Z,33.75
2018-05-27T12:43:57.486Z,33.75
2018-05-27T12:44:57.494Z,33.75
2018-05-27T12:45:57.532Z,33.75
2018-05-27T12:46:57.596Z,39.38
2018-05-27T12:47:57.547Z,39.38
2018-05-27T12:48:57.566Z,45.00
2018-05-27T12:49:57.576Z,45.00
2018-05-27T12:50:57.666Z,50.63
2018-05-27T12:51:57.782Z,50.63
2018-05-27T12:52:57.636Z,56.25
2018-05-27T12:53:57.660Z,61.88
2018-05-27T12:54:57.655Z,61.88
2018-05-27T12:55:57.673Z,67.50
2018-05-27T12:56:57.761Z,73.13
2018-05-27T12:57:57.775Z,73.13
2018-05-27T12:58:57.721Z,78.75
2018-05-27T12:59:57.806Z,84.38
2018-05-27T13:00:57.764Z,90.00
2018-05-27T13:01:57.789Z,95.63
2018-05-27T13:02:57.793Z,101.25
2018-05-27T13:03:57.812Z,106.88
2018-05-27T13:04:57.863Z,112.50
2018-05-27T13:05:57.945Z,118.13
2018-05-27T13:06:57.844Z,123.75
2018-05-27T13:07:57.882Z,123.75
2018-05-27T13:08:57.891Z,123.75
2018-05-27T13:09:57.900Z,123.75
2018-05-27T13:10:57.939Z,123.75
2018-05-27T13:11:58.340Z,129.38
2018-05-27T13:12:57.965Z,135.00
2018-05-27T13:13:57.956Z,146.25
2018-05-27T13:14:57.993Z,151.88
2018-05-27T13:15:57.986Z,163.13
2018-05-27T13:16:58.397Z,168.75
2018-05-27T13:17:58.044Z,168.75
2018-05-27T13:18:58.062Z,174.38
2018-05-27T13:19:58.056Z,174.38
2018-05-27T13:20:58.206Z,180.00
2018-05-27T13:21:58.140Z,180.00
2018-05-27T13:22:58.099Z,185.63
2018-05-27T13:23:58.159Z,185.63
2018-05-27T13:24:58.147Z,191.25
2018-05-27T13:25:58.177Z,191.25
2018-05-27T13:26:58.167Z,191.25
2018-05-27T13:27:58.211Z,196.88
2018-05-27T13:28:58.233Z,202.50
2018-05-27T13:29:58.308Z,202.50
2018-05-27T13:30:58.242Z,208.13
2018-05-27T13:31:58.273Z,208.13
2018-05-27T13:32:58.317Z,208.13
2018-05-27T13:33:58.278Z,208.13
2018-05-27T13:34:58.334Z,202.50
2018-05-27T13:35:58.310Z,196.88
2018-05-27T13:36:58.322Z,191.25
2018-05-27T13:37:58.386Z,180.00
2018-05-27T13:38:58.443Z,163.13
2018-05-27T13:39:58.370Z,146.25
2018-05-27T13:40:58.402Z,129.38
2018-05-27T13:41:58.434Z,118.13
2018-05-27T13:42:58.438Z,106.88
2018-05-27T13:43:58.455Z,106.88
2018-05-27T13:44:58.500Z,101.25
2018-05-27T13:45:58.479Z,101.25
2018-05-27T13:46:58.510Z,101.25
2018-05-27T13:47:58.517Z,101.25
2018-05-27T13:48:58.546Z,106.88
2018-05-27T13:49:58.591Z,112.50
2018-05-27T13:50:58.562Z,118.13
2018-05-27T13:51:58.563Z,118.13
2018-05-27T13:52:58.632Z,118.13
2018-05-27T13:53:58.665Z,123.75
2018-05-27T13:54:58.740Z,123.75
2018-05-27T13:55:58.715Z,123.75
2018-05-27T13:56:58.659Z,123.75
2018-05-27T13:57:58.710Z,123.75
2018-05-27T13:58:58.759Z,123.75
2018-05-27T13:59:58.712Z,118.13
2018-05-27T14:00:58.727Z,118.13
2018-05-27T14:01:58.750Z,118.13
2018-05-27T14:02:58.774Z,112.50
2018-05-27T14:03:58.751Z,106.88
2018-05-27T14:04:58.769Z,106.88
2018-05-27T14:05:58.808Z,101.25
2018-05-27T14:06:58.819Z,101.25
2018-05-27T14:07:59.019Z,101.25
2018-05-27T14:08:58.847Z,101.25
2018-05-27T14:09:58.855Z,106.88
2018-05-27T14:10:58.887Z,106.88
2018-05-27T14:11:58.910Z,112.50
2018-05-27T14:12:58.928Z,118.13
2018-05-27T14:13:58.972Z,118.13
2018-05-27T14:14:58.944Z,118.13
2018-05-27T14:15:58.951Z,123.75
2018-05-27T14:16:58.997Z,123.75
2018-05-27T14:17:58.994Z,129.38
2018-05-27T14:18:59.290Z,129.38
2018-05-27T14:19:59.022Z,135.00
2018-05-27T14:20:59.030Z,140.63
2018-05-27T14:21:59.051Z,140.63
2018-05-27T14:22:59.073Z,146.25
2018-05-27T14:23:59.085Z,146.25
2018-05-27T14:24:59.135Z,151.88
2018-05-27T14:25:59.114Z,151.88
2018-05-27T14:26:59.156Z,151.88
2018-05-27T14:27:59.175Z,157.50
2018-05-27T14:28:59.204Z,157.50
2018-05-27T14:29:59.233Z,157.50
2018-05-27T14:30:59.205Z,163.13
2018-05-27T14:31:59.247Z,168.75
2018-05-27T14:32:59.291Z,168.75
2018-05-27T14:33:59.247Z,168.75
2018-05-27T14:34:59.278Z,168.75
2018-05-27T14:35:59.288Z,163.13
2018-05-27T14:36:59.287Z,157.50
2018-05-27T14:37:59.293Z,157.50
2018-05-27T14:38:59.351Z,151.88
2018-05-27T14:39:59.361Z,151.88
2018-05-27T14:40:59.404Z,151.88
2018-05-27T14:41:59.376Z,140.63
2018-05-27T14:42:59.422Z,135.00
2018-05-27T14:43:59.454Z,123.75
2018-05-27T14:44:59.433Z,118.13
2018-05-27T14:45:59.451Z,112.50
2018-05-27T14:46:59.465Z,112.50
2018-05-27T14:47:59.466Z,106.88
2018-05-27T14:48:59.507Z,101.25
2018-05-27T14:49:59.490Z,101.25
2018-05-27T14:50:59.576Z,101.25
2018-05-27T14:51:59.536Z,101.25
2018-05-27T14:52:59.599Z,106.88
2018-05-27T14:53:59.602Z,106.88
2018-05-27T14:54:59.575Z,106.88
2018-05-27T14:55:59.611Z,106.88
2018-05-27T14:56:59.610Z,106.88
2018-05-27T14:57:59.672Z,106.88
2018-05-27T14:58:59.691Z,106.88
2018-05-27T14:59:59.710Z,106.88
2018-05-27T15:00:59.659Z,106.88
2018-05-27T15:01:59.758Z,106.88
2018-05-27T15:02:59.720Z,106.88
2018-05-27T15:03:59.777Z,106.88
2018-05-27T15:04:59.726Z,106.88
2018-05-27T15:05:59.744Z,112.50
2018-05-27T15:06:59.756Z,112.50
2018-05-27T15:07:59.790Z,112.50
2018-05-27T15:08:59.851Z,118.13
2018-05-27T15:09:59.857Z,118.13
2018-05-27T15:10:59.880Z,118.13
2018-05-27T15:11:59.915Z,118.13
2018-05-27T15:12:59.893Z,118.13
2018-05-27T15:13:59.889Z,123.75
2018-05-27T15:14:59.896Z,123.75
2018-05-27T15:15:59.953Z,123.75
2018-05-27T15:16:59.932Z,123.75
2018-05-27T15:17:59.941Z,123.75
2018-05-27T15:18:59.956Z,123.75
2018-05-27T15:20:00.042Z,123.75
2018-05-27T15:20:59.990Z,123.75
2018-05-27T15:22:00.028Z,123.75
2018-05-27T15:23:00.036Z,123.75
2018-05-27T15:24:00.059Z,123.75
2018-05-27T15:25:00.110Z,118.13
2018-05-27T15:26:00.057Z,118.13
2018-05-27T15:27:00.091Z,118.13
2018-05-27T15:28:00.149Z,112.50
2018-05-27T15:29:00.110Z,112.50
2018-05-27T15:30:00.154Z,106.88
2018-05-27T15:31:00.148Z,106.88
2018-05-27T15:32:00.205Z,106.88
2018-05-27T15:33:00.204Z,106.88
2018-05-27T15:34:00.211Z,101.25
2018-05-27T15:35:00.216Z,101.25
2018-05-27T15:36:00.243Z,101.25
2018-05-27T15:37:00.251Z,101.25
2018-05-27T15:38:00.303Z,101.25
2018-05-27T15:39:00.309Z,101.25
2018-05-27T15:40:00.282Z,95.63
2018-05-27T15:41:00.303Z,95.63
2018-05-27T15:42:00.311Z,95.63
2018-05-27T15:43:00.378Z,95.63
2018-05-27T15:44:00.377Z,95.63
2018-05-27T15:45:00.365Z,95.63
2018-05-27T15:46:00.387Z,95.63
2018-05-27T15:47:00.409Z,95.63
2018-05-27T15:48:00.407Z,95.63
2018-05-27T15:49:00.458Z,95.63
2018-05-27T15:50:00.456Z,95.63
2018-05-27T15:51:00.461Z,95.63
2018-05-27T15:52:00.475Z,95.63
2018-05-27T15:53:00.488Z,101.25
2018-05-27T15:54:00.564Z,101.25
2018-05-27T15:55:00.527Z,101.25
2018-05-27T15:56:00.549Z,101.25
2018-05-27T15:57:00.571Z,101.25
2018-05-27T15:58:00.606Z,101.25
2018-05-27T15:59:00.626Z,101.25
2018-05-27T16:00:00.623Z,101.25
2018-05-27T16:01:00.631Z,101.25
2018-05-27T16:02:00.676Z,101.25
2018-05-27T16:03:00.640Z,101.25
2018-05-27T16:04:00.693Z,101.25
2018-05-27T16:05:00.687Z,101.25
2018-05-27T16:06:00.686Z,101.25
2018-05-27T16:07:00.730Z,101.25
2018-05-27T16:08:00.786Z,101.25
2018-05-27T16:09:00.750Z,101.25
2018-05-27T16:10:00.768Z,101.25
2018-05-27T16:11:00.786Z,101.25
2018-05-27T16:12:00.863Z,106.88
2018-05-27T16:13:00.845Z,106.88
2018-05-27T16:14:00.851Z,106.88
2018-05-27T16:15:00.915Z,106.88
2018-05-27T16:16:00.857Z,106.88
2018-05-27T16:17:00.888Z,106.88
2018-05-27T16:18:01.075Z,106.88
2018-05-27T16:19:00.965Z,106.88
2018-05-27T16:20:00.925Z,106.88
2018-05-27T16:21:00.942Z,106.88
2018-05-27T16:22:00.995Z,106.88
2018-05-27T16:23:01.028Z,106.88
2018-05-27T16:24:00.988Z,101.25
2018-05-27T16:25:01.018Z,101.25
2018-05-27T16:26:01.011Z,101.25
2018-05-27T16:27:01.076Z,101.25
2018-05-27T16:28:01.042Z,101.25
2018-05-27T16:29:01.055Z,101.25
2018-05-27T16:30:01.076Z,101.25
2018-05-27T16:31:01.111Z,101.25
2018-05-27T16:32:01.132Z,106.88
2018-05-27T16:33:01.126Z,112.50
2018-05-27T16:34:01.142Z,112.50
2018-05-27T16:35:01.211Z,112.50
2018-05-27T16:36:01.241Z,118.13
2018-05-27T16:37:01.195Z,118.13
2018-05-27T16:38:01.212Z,123.75
2018-05-27T16:39:01.225Z,123.75
2018-05-27T16:40:01.229Z,123.75
2018-05-27T16:41:01.282Z,129.38
2018-05-27T16:42:01.271Z,129.38
2018-05-27T16:43:01.306Z,123.75
2018-05-27T16:44:01.416Z,123.75
2018-05-27T16:45:01.317Z,123.75
2018-05-27T16:46:01.398Z,123.75
2018-05-27T16:47:01.337Z,123.75
2018-05-27T16:48:01.351Z,118.13
2018-05-27T16:49:01.377Z,118.13
2018-05-27T16:50:01.506Z,118.13
2018-05-27T16:51:01.432Z,112.50
2018-05-27T16:52:01.456Z,112.50
2018-05-27T16:53:01.467Z,112.50
2018-05-27T16:54:01.451Z,112.50
2018-05-27T16:55:01.494Z,112.50
2018-05-27T16:56:01.510Z,112.50
2018-05-27T16:57:01.544Z,112.50
2018-05-27T16:58:01.565Z,112.50
2018-05-27T16:59:01.555Z,112.50
2018-05-27T17:00:01.543Z,106.88
2018-05-27T17:01:01.571Z,106.88
2018-05-27T17:02:01.649Z,106.88
2018-05-27T17:03:01.628Z,106.88
2018-05-27T17:04:01.643Z,106.88
2018-05-27T17:05:01.621Z,106.88
2018-05-27T17:06:01.687Z,106.88
2018-05-27T17:07:01.651Z,106.88
2018-05-27T17:08:01.728Z,106.88
2018-05-27T17:09:01.722Z,106.88
2018-05-27T17:10:01.729Z,106.88
2018-05-27T17:11:01.817Z,101.25
2018-05-27T17:12:01.750Z,101.25
2018-05-27T17:13:01.830Z,95.63
2018-05-27T17:14:01.759Z,95.63
2018-05-27T17:15:01.889Z,90.00
2018-05-27T17:16:01.797Z,90.00
2018-05-27T17:17:01.845Z,90.00
2018-05-27T17:18:01.880Z,90.00
2018-05-27T17:19:01.873Z,90.00
2018-05-27T17:20:01.861Z,90.00
2018-05-27T17:21:01.864Z,90.00
2018-05-27T17:22:01.879Z,90.00
2018-05-27T17:23:01.953Z,90.00
2018-05-27T17:24:02.044Z,90.00
2018-05-27T17:25:01.942Z,90.00
2018-05-27T17:26:02.034Z,90.00
2018-05-27T17:27:02.113Z,90.00
2018-05-27T17:28:01.979Z,90.00
2018-05-27T17:29:02.094Z,84.38
2018-05-27T17:30:02.009Z,84.38
2018-05-27T17:31:02.054Z,84.38
2018-05-27T17:32:02.057Z,84.38
2018-05-27T17:33:02.083Z,84.38
2018-05-27T17:34:02.080Z,84.38
2018-05-27T17:35:02.091Z,84.38
2018-05-27T17:36:02.150Z,78.75
2018-05-27T17:37:02.439Z,78.75
2018-05-27T17:38:02.167Z,78.75
2018-05-27T17:39:02.175Z,73.13
2018-05-27T17:40:02.190Z,67.50
2018-05-27T17:41:02.403Z,67.50
2018-05-27T17:42:02.195Z,61.88
2018-05-27T17:43:02.215Z,61.88
2018-05-27T17:44:02.224Z,56.25
2018-05-27T17:45:02.264Z,56.25
2018-05-27T17:46:02.530Z,56.25
2018-05-27T17:47:02.305Z,50.63
2018-05-27T17:48:02.286Z,50.63
2018-05-27T17:49:02.297Z,50.63
2018-05-27T17:50:02.308Z,45.00
2018-05-27T17:51:02.387Z,45.00
2018-05-27T17:52:02.372Z,45.00
2018-05-27T17:53:02.483Z,39.38
2018-05-27T17:54:02.420Z,39.38
2018-05-27T17:55:02.384Z,39.38
2018-05-27T17:56:02.394Z,33.75
2018-05-27T17:57:02.429Z,33.75
2018-05-27T17:58:02.483Z,28.13
2018-05-27T17:59:02.518Z,28.13
2018-05-27T18:00:02.458Z,22.50
2018-05-27T18:01:02.481Z,22.50
2018-05-27T18:02:02.501Z,22.50
2018-05-27T18:03:02.522Z,22.50
2018-05-27T18:04:02.566Z,22.50
2018-05-27T18:05:02.577Z,22.50
2018-05-27T18:06:02.598Z,22.50
2018-05-27T18:07:02.574Z,22.50
2018-05-27T18:08:02.589Z,22.50
2018-05-27T18:09:02.634Z,22.50
2018-05-27T18:10:02.612Z,28.13
2018-05-27T18:11:03.660Z,28.13
2018-05-27T18:12:02.646Z,28.13
2018-05-27T18:13:02.694Z,28.13
2018-05-27T18:14:02.698Z,33.75
2018-05-27T18:15:02.718Z,33.75
2018-05-27T18:16:02.752Z,33.75
2018-05-27T18:17:02.825Z,33.75
2018-05-27T18:18:02.734Z,33.75
2018-05-27T18:19:02.735Z,33.75
2018-05-27T18:20:02.778Z,33.75
2018-05-27T18:21:02.778Z,28.13
2018-05-27T18:22:02.827Z,28.13
2018-05-27T18:23:02.834Z,28.13
2018-05-27T18:24:02.893Z,28.13
2018-05-27T18:25:02.854Z,22.50
2018-05-27T18:26:02.855Z,22.50
2018-05-27T18:27:02.916Z,22.50
2018-05-27T18:28:02.888Z,22.50
2018-05-27T18:29:02.994Z,28.13
2018-05-27T18:30:02.915Z,22.50
2018-05-27T18:31:02.938Z,22.50
2018-05-27T18:32:02.936Z,22.50
2018-05-27T18:33:02.986Z,22.50
2018-05-27T18:34:03.058Z,22.50
2018-05-27T18:35:02.998Z,22.50
2018-05-27T18:36:02.996Z,22.50
2018-05-27T18:37:03.025Z,22.50
2018-05-27T18:38:03.058Z,22.50
2018-05-27T18:39:03.124Z,22.50
2018-05-27T18:40:03.073Z,22.50
2018-05-27T18:41:03.092Z,16.88
2018-05-27T18:42:03.103Z,16.88
2018-05-27T18:43:03.142Z,16.88
2018-05-27T18:44:03.157Z,16.88
2018-05-27T18:45:03.124Z,16.88
2018-05-27T18:46:03.150Z,16.88
2018-05-27T18:47:03.146Z,16.88
2018-05-27T18:48:03.226Z,16.88
2018-05-27T18:49:03.203Z,11.25
2018-05-27T18:50:03.251Z,11.25
2018-05-27T18:51:03.213Z,11.25
2018-05-27T18:52:03.237Z,11.25
2018-05-27T18:53:03.244Z,11.25
2018-05-27T18:54:03.256Z,11.25
2018-05-27T18:55:03.312Z,11.25
2018-05-27T18:56:03.314Z,11.25
2018-05-27T18:57:03.351Z,5.63
2018-05-27T18:58:03.323Z,5.63
2018-05-27T18:59:03.396Z,5.63
2018-05-27T19:00:03.330Z,5.63
2018-05-27T19:01:03.430Z,5.63
2018-05-27T19:02:03.378Z,5.63
2018-05-27T19:03:03.403Z,5.63
2018-05-27T19:04:03.395Z,5.63
2018-05-27T19:05:03.422Z,5.63
2018-05-27T19:06:03.461Z,5.63
2018-05-27T19:07:03.486Z,5.63
2018-05-27T19:08:03.477Z,0.00
2018-05-27T19:09:03.569Z,0.00
2018-05-27T19:10:03.493Z,0.00
2018-05-27T19:11:03.658Z,0.00
2018-05-27T19:12:04.418Z,0.00
2018-05-27T19:13:03.603Z,0.00
2018-05-27T19:14:03.548Z,0.00
2018-05-27T19:15:03.573Z,0.00
2018-05-27T19:16:03.592Z,0.00
2018-05-27T19:17:03.586Z,0.00
2018-05-27T19:18:03.649Z,0.00
2018-05-27T19:19:03.616Z,0.00
2018-05-27T19:20:03.619Z,0.00
2018-05-27T19:21:04.344Z,0.00
2018-05-27T19:22:03.646Z,0.00
2018-05-27T19:23:03.718Z,0.00
2018-05-27T19:24:03.686Z,0.00
2018-05-27T19:25:03.695Z,0.00
2018-05-27T19:26:03.777Z,0.00
2018-05-27T19:27:03.750Z,0.00
2018-05-27T19:28:03.741Z,0.00
2018-05-27T19:29:03.748Z,0.00
2018-05-27T19:30:03.839Z,0.00
2018-05-27T19:31:03.874Z,0.00
2018-05-27T19:32:03.839Z,0.00
2018-05-27T19:33:03.797Z,0.00
2018-05-27T19:34:03.832Z,0.00
2018-05-27T19:35:03.867Z,0.00
2018-05-27T19:36:03.931Z,0.00
2018-05-27T19:37:03.980Z,0.00
2018-05-27T19:38:03.892Z,0.00
2018-05-27T19:39:04.048Z,0.00
2018-05-27T19:40:03.920Z,0.00
2018-05-27T19:41:03.948Z,0.00
2018-05-27T19:42:04.015Z,0.00
2018-05-27T19:43:04.085Z,0.00
2018-05-27T19:44:03.977Z,0.00
2018-05-27T19:45:03.985Z,0.00
2018-05-27T19:46:03.992Z,0.00
2018-05-27T19:47:04.033Z,0.00
2018-05-27T19:48:04.036Z,0.00
2018-05-27T19:49:04.060Z,0.00
2018-05-27T19:50:04.161Z,0.00
2018-05-27T19:51:04.065Z,0.00
2018-05-27T19:52:04.141Z,0.00
2018-05-27T19:53:04.119Z,0.00
2018-05-27T19:54:04.108Z,0.00
2018-05-27T19:55:04.108Z,0.00
2018-05-27T19:56:04.117Z,0.00
2018-05-27T19:57:04.170Z,0.00
2018-05-27T19:58:04.209Z,0.00
2018-05-27T19:59:04.171Z,0.00
2018-05-27T20:00:04.187Z,0.00